sensor_id;sensor_type;location;lat;lon;timestamp;P1;durP1;ratioP1;P2;durP2;ratioP2
67372;SDS011;54257;54.496;18.412;2022-11-18T00:06:12;1.20;;;1.10;;
67372;SDS011;54257;54.496;18.412;2022-11-18T00:08:56;4.00;;;1.40;;
67372;SDS011;54257;54.496;18.412;2022-11-18T00:11:40;1.90;;;0.70;;
67372;SDS011;54257;54.496;18.412;2022-11-18T00:19:06;1.10;;;1.00;;
67372;SDS011;54257;54.496;18.412;2022-11-18T00:22:53;3.20;;;1.00;;
67372;SDS011;54257;54.496;18.412;2022-11-18T00:38:04;2.40;;;1.60;;
67372;SDS011;54257;54.496;18.412;2022-11-18T00:41:49;0.80;;;0.70;;
67372;SDS011;54257;54.496;18.412;2022-11-18T00:49:54;1.10;;;0.90;;
67372;SDS011;54257;54.496;18.412;2022-11-18T00:53:06;3.40;;;1.30;;
67372;SDS011;54257;54.496;18.412;2022-11-18T01:00:18;1.40;;;1.10;;
67372;SDS011;54257;54.496;18.412;2022-11-18T01:03:28;1.20;;;1.10;;
67372;SDS011;54257;54.496;18.412;2022-11-18T01:07:13;2.40;;;1.40;;
67372;SDS011;54257;54.496;18.412;2022-11-18T01:10:15;1.10;;;1.00;;
67372;SDS011;54257;54.496;18.412;2022-11-18T01:13:37;2.40;;;1.40;;
67372;SDS011;54257;54.496;18.412;2022-11-18T01:16:20;1.30;;;1.20;;
67372;SDS011;54257;54.496;18.412;2022-11-18T01:19:28;0.90;;;0.80;;
67372;SDS011;54257;54.496;18.412;2022-11-18T01:23:04;2.40;;;1.20;;
67372;SDS011;54257;54.496;18.412;2022-11-18T01:26:32;1.60;;;1.00;;
67372;SDS011;54257;54.496;18.412;2022-11-18T01:30:14;1.10;;;0.90;;
67372;SDS011;54257;54.496;18.412;2022-11-18T01:32:53;1.70;;;1.40;;
67372;SDS011;54257;54.496;18.412;2022-11-18T01:52:28;1.80;;;1.40;;
67372;SDS011;54257;54.496;18.412;2022-11-18T02:07:22;1.60;;;1.30;;
67372;SDS011;54257;54.496;18.412;2022-11-18T02:43:17;3.60;;;1.50;;
67372;SDS011;54257;54.496;18.412;2022-11-18T02:46:15;2.50;;;1.80;;
67372;SDS011;54257;54.496;18.412;2022-11-18T02:53:43;2.00;;;1.40;;
67372;SDS011;54257;54.496;18.412;2022-11-18T02:57:43;1.70;;;1.10;;
67372;SDS011;54257;54.496;18.412;2022-11-18T03:00:35;2.00;;;1.50;;
67372;SDS011;54257;54.496;18.412;2022-11-18T03:04:27;1.70;;;1.50;;
67372;SDS011;54257;54.496;18.412;2022-11-18T03:07:42;1.40;;;1.10;;
67372;SDS011;54257;54.496;18.412;2022-11-18T03:10:15;1.50;;;1.10;;
67372;SDS011;54257;54.496;18.412;2022-11-18T03:25:15;1.40;;;1.20;;
67372;SDS011;54257;54.496;18.412;2022-11-18T03:31:57;1.30;;;1.00;;
67372;SDS011;54257;54.496;18.412;2022-11-18T03:35:44;1.20;;;1.10;;
67372;SDS011;54257;54.496;18.412;2022-11-18T03:39:23;1.20;;;1.00;;
67372;SDS011;54257;54.496;18.412;2022-11-18T03:51:46;1.10;;;1.00;;
67372;SDS011;54257;54.496;18.412;2022-11-18T04:02:54;1.20;;;1.10;;
67372;SDS011;54257;54.496;18.412;2022-11-18T04:09:40;1.20;;;1.10;;
67372;SDS011;54257;54.496;18.412;2022-11-18T04:20:31;1.70;;;0.90;;
67372;SDS011;54257;54.496;18.412;2022-11-18T04:27:24;1.10;;;1.00;;
67372;SDS011;54257;54.496;18.412;2022-11-18T04:31:14;1.10;;;1.00;;
67372;SDS011;54257;54.496;18.412;2022-11-18T04:34:57;1.60;;;1.00;;
67372;SDS011;54257;54.496;18.412;2022-11-18T04:39:01;2.90;;;1.10;;
67372;SDS011;54257;54.496;18.412;2022-11-18T04:46:41;1.10;;;1.00;;
67372;SDS011;54257;54.496;18.412;2022-11-18T04:55:01;1.40;;;1.10;;
67372;SDS011;54257;54.496;18.412;2022-11-18T05:02:07;2.30;;;1.30;;
67372;SDS011;54257;54.496;18.412;2022-11-18T05:09:16;0.80;;;0.80;;
67372;SDS011;54257;54.496;18.412;2022-11-18T05:21:04;0.70;;;0.70;;
67372;SDS011;54257;54.496;18.412;2022-11-18T05:23:37;1.10;;;1.00;;
67372;SDS011;54257;54.496;18.412;2022-11-18T05:31:48;1.40;;;1.00;;
67372;SDS011;54257;54.496;18.412;2022-11-18T05:34:49;1.20;;;1.10;;
67372;SDS011;54257;54.496;18.412;2022-11-18T05:38:22;1.50;;;1.40;;
67372;SDS011;54257;54.496;18.412;2022-11-18T05:42:08;1.90;;;1.30;;
67372;SDS011;54257;54.496;18.412;2022-11-18T05:45:00;1.60;;;1.10;;
67372;SDS011;54257;54.496;18.412;2022-11-18T05:48:11;1.10;;;1.00;;
67372;SDS011;54257;54.496;18.412;2022-11-18T05:55:13;2.30;;;2.10;;
67372;SDS011;54257;54.496;18.412;2022-11-18T06:02:47;2.10;;;1.50;;
67372;SDS011;54257;54.496;18.412;2022-11-18T06:06:32;2.10;;;1.80;;
67372;SDS011;54257;54.496;18.412;2022-11-18T06:15:38;1.80;;;1.30;;
67372;SDS011;54257;54.496;18.412;2022-11-18T06:18:50;1.10;;;1.00;;
67372;SDS011;54257;54.496;18.412;2022-11-18T06:22:20;2.70;;;1.70;;
67372;SDS011;54257;54.496;18.412;2022-11-18T06:25:26;1.10;;;0.90;;
67372;SDS011;54257;54.496;18.412;2022-11-18T06:38:09;1.30;;;1.20;;
67372;SDS011;54257;54.496;18.412;2022-11-18T06:54:32;1.20;;;0.90;;
67372;SDS011;54257;54.496;18.412;2022-11-18T07:10:31;1.90;;;1.30;;
67372;SDS011;54257;54.496;18.412;2022-11-18T07:17:09;1.40;;;0.90;;
67372;SDS011;54257;54.496;18.412;2022-11-18T07:19:42;1.00;;;0.70;;
67372;SDS011;54257;54.496;18.412;2022-11-18T07:22:25;0.80;;;0.60;;
67372;SDS011;54257;54.496;18.412;2022-11-18T07:24:59;0.90;;;0.80;;
67372;SDS011;54257;54.496;18.412;2022-11-18T07:27:33;1.10;;;0.80;;
67372;SDS011;54257;54.496;18.412;2022-11-18T07:30:04;1.40;;;0.90;;
67372;SDS011;54257;54.496;18.412;2022-11-18T07:32:42;1.00;;;0.80;;
67372;SDS011;54257;54.496;18.412;2022-11-18T07:35:09;1.10;;;0.90;;
67372;SDS011;54257;54.496;18.412;2022-11-18T07:37:38;1.20;;;1.10;;
67372;SDS011;54257;54.496;18.412;2022-11-18T07:40:05;2.20;;;1.20;;
67372;SDS011;54257;54.496;18.412;2022-11-18T07:42:33;0.60;;;0.50;;
67372;SDS011;54257;54.496;18.412;2022-11-18T07:45:10;0.90;;;0.90;;
67372;SDS011;54257;54.496;18.412;2022-11-18T07:47:38;1.30;;;0.70;;
67372;SDS011;54257;54.496;18.412;2022-11-18T07:50:08;1.10;;;0.80;;
67372;SDS011;54257;54.496;18.412;2022-11-18T07:52:35;0.50;;;0.50;;
67372;SDS011;54257;54.496;18.412;2022-11-18T07:55:02;0.90;;;0.90;;
67372;SDS011;54257;54.496;18.412;2022-11-18T07:57:30;1.00;;;0.70;;
67372;SDS011;54257;54.496;18.412;2022-11-18T07:59:57;2.40;;;1.00;;
67372;SDS011;54257;54.496;18.412;2022-11-18T08:03:53;1.80;;;0.80;;
67372;SDS011;54257;54.496;18.412;2022-11-18T08:19:26;1.20;;;0.90;;
67372;SDS011;54257;54.496;18.412;2022-11-18T08:22:33;0.80;;;0.80;;
67372;SDS011;54257;54.496;18.412;2022-11-18T08:25:00;1.50;;;1.00;;
67372;SDS011;54257;54.496;18.412;2022-11-18T08:27:27;0.70;;;0.70;;
67372;SDS011;54257;54.496;18.412;2022-11-18T08:29:54;1.60;;;0.60;;
67372;SDS011;54257;54.496;18.412;2022-11-18T08:32:21;1.10;;;0.80;;
67372;SDS011;54257;54.496;18.412;2022-11-18T08:34:49;0.70;;;0.70;;
67372;SDS011;54257;54.496;18.412;2022-11-18T08:37:17;0.90;;;0.80;;
67372;SDS011;54257;54.496;18.412;2022-11-18T08:39:44;2.50;;;0.70;;
67372;SDS011;54257;54.496;18.412;2022-11-18T08:42:11;1.20;;;1.00;;
67372;SDS011;54257;54.496;18.412;2022-11-18T08:44:38;1.40;;;0.90;;
67372;SDS011;54257;54.496;18.412;2022-11-18T08:47:05;0.90;;;0.80;;
67372;SDS011;54257;54.496;18.412;2022-11-18T08:49:32;2.20;;;0.90;;
67372;SDS011;54257;54.496;18.412;2022-11-18T08:51:59;0.70;;;0.70;;
67372;SDS011;54257;54.496;18.412;2022-11-18T08:54:26;1.10;;;1.00;;
67372;SDS011;54257;54.496;18.412;2022-11-18T08:56:53;1.30;;;0.90;;
67372;SDS011;54257;54.496;18.412;2022-11-18T08:59:20;1.40;;;1.00;;
67372;SDS011;54257;54.496;18.412;2022-11-18T09:01:47;1.40;;;1.00;;
67372;SDS011;54257;54.496;18.412;2022-11-18T09:04:17;3.70;;;1.30;;
67372;SDS011;54257;54.496;18.412;2022-11-18T09:06:44;0.70;;;0.70;;
67372;SDS011;54257;54.496;18.412;2022-11-18T09:09:11;1.30;;;1.10;;
67372;SDS011;54257;54.496;18.412;2022-11-18T09:11:38;1.40;;;1.00;;
67372;SDS011;54257;54.496;18.412;2022-11-18T09:14:06;4.30;;;1.70;;
67372;SDS011;54257;54.496;18.412;2022-11-18T09:16:34;1.40;;;1.00;;
67372;SDS011;54257;54.496;18.412;2022-11-18T09:19:00;1.10;;;0.80;;
67372;SDS011;54257;54.496;18.412;2022-11-18T09:21:28;2.10;;;1.40;;
67372;SDS011;54257;54.496;18.412;2022-11-18T09:23:55;1.50;;;1.00;;
67372;SDS011;54257;54.496;18.412;2022-11-18T09:26:22;2.40;;;1.10;;
67372;SDS011;54257;54.496;18.412;2022-11-18T09:28:52;1.90;;;1.80;;
67372;SDS011;54257;54.496;18.412;2022-11-18T09:31:20;1.50;;;1.40;;
67372;SDS011;54257;54.496;18.412;2022-11-18T09:33:47;1.40;;;1.30;;
67372;SDS011;54257;54.496;18.412;2022-11-18T09:36:18;1.50;;;1.20;;
67372;SDS011;54257;54.496;18.412;2022-11-18T09:38:47;2.20;;;1.50;;
67372;SDS011;54257;54.496;18.412;2022-11-18T09:49:42;2.10;;;1.90;;
67372;SDS011;54257;54.496;18.412;2022-11-18T09:54:44;3.30;;;1.70;;
67372;SDS011;54257;54.496;18.412;2022-11-18T09:57:58;4.80;;;2.30;;
67372;SDS011;54257;54.496;18.412;2022-11-18T10:00:17;5.90;;;3.20;;
67372;SDS011;54257;54.496;18.412;2022-11-18T10:05:25;2.90;;;2.20;;
67372;SDS011;54257;54.496;18.412;2022-11-18T10:08:02;6.80;;;3.50;;
67372;SDS011;54257;54.496;18.412;2022-11-18T10:24:40;1.80;;;1.10;;
67372;SDS011;54257;54.496;18.412;2022-11-18T10:27:12;2.10;;;1.60;;
67372;SDS011;54257;54.496;18.412;2022-11-18T10:29:41;1.00;;;0.90;;
67372;SDS011;54257;54.496;18.412;2022-11-18T10:32:12;1.60;;;0.90;;
67372;SDS011;54257;54.496;18.412;2022-11-18T10:34:49;1.30;;;1.20;;
67372;SDS011;54257;54.496;18.412;2022-11-18T10:37:28;1.80;;;1.10;;
67372;SDS011;54257;54.496;18.412;2022-11-18T10:40:00;1.20;;;0.90;;
67372;SDS011;54257;54.496;18.412;2022-11-18T10:42:33;0.80;;;0.70;;
67372;SDS011;54257;54.496;18.412;2022-11-18T10:47:59;1.30;;;1.10;;
67372;SDS011;54257;54.496;18.412;2022-11-18T10:50:28;1.90;;;1.40;;
67372;SDS011;54257;54.496;18.412;2022-11-18T10:53:01;1.30;;;1.10;;
67372;SDS011;54257;54.496;18.412;2022-11-18T11:20:12;1.80;;;1.30;;
67372;SDS011;54257;54.496;18.412;2022-11-18T11:22:22;2.40;;;1.80;;
67372;SDS011;54257;54.496;18.412;2022-11-18T11:24:49;2.30;;;1.60;;
67372;SDS011;54257;54.496;18.412;2022-11-18T11:27:20;2.30;;;1.50;;
67372;SDS011;54257;54.496;18.412;2022-11-18T11:30:03;2.70;;;1.90;;
67372;SDS011;54257;54.496;18.412;2022-11-18T11:41:22;3.80;;;2.60;;
67372;SDS011;54257;54.496;18.412;2022-11-18T11:49:53;2.10;;;1.70;;
67372;SDS011;54257;54.496;18.412;2022-11-18T11:52:27;3.30;;;2.00;;
67372;SDS011;54257;54.496;18.412;2022-11-18T11:55:12;2.60;;;2.10;;
67372;SDS011;54257;54.496;18.412;2022-11-18T12:00:59;4.20;;;1.70;;
67372;SDS011;54257;54.496;18.412;2022-11-18T12:06:09;3.00;;;2.30;;
67372;SDS011;54257;54.496;18.412;2022-11-18T12:08:38;3.00;;;2.30;;
67372;SDS011;54257;54.496;18.412;2022-11-18T12:13:52;2.30;;;1.60;;
67372;SDS011;54257;54.496;18.412;2022-11-18T12:19:12;3.50;;;2.10;;
67372;SDS011;54257;54.496;18.412;2022-11-18T12:26:45;3.50;;;1.80;;
67372;SDS011;54257;54.496;18.412;2022-11-18T12:31:47;3.10;;;2.00;;
67372;SDS011;54257;54.496;18.412;2022-11-18T12:39:59;2.40;;;1.70;;
67372;SDS011;54257;54.496;18.412;2022-11-18T12:53:42;2.50;;;2.10;;
67372;SDS011;54257;54.496;18.412;2022-11-18T12:58:44;3.30;;;1.80;;
67372;SDS011;54257;54.496;18.412;2022-11-18T13:01:16;2.20;;;1.50;;
67372;SDS011;54257;54.496;18.412;2022-11-18T13:03:45;2.60;;;1.40;;
67372;SDS011;54257;54.496;18.412;2022-11-18T13:06:21;3.60;;;1.80;;
67372;SDS011;54257;54.496;18.412;2022-11-18T13:09:01;2.30;;;2.10;;
67372;SDS011;54257;54.496;18.412;2022-11-18T13:11:30;1.80;;;1.40;;
67372;SDS011;54257;54.496;18.412;2022-11-18T13:17:34;1.60;;;1.40;;
67372;SDS011;54257;54.496;18.412;2022-11-18T13:22:52;1.10;;;0.80;;
67372;SDS011;54257;54.496;18.412;2022-11-18T13:25:40;1.60;;;1.10;;
67372;SDS011;54257;54.496;18.412;2022-11-18T13:28:26;1.80;;;1.20;;
67372;SDS011;54257;54.496;18.412;2022-11-18T13:31:06;1.20;;;1.10;;
67372;SDS011;54257;54.496;18.412;2022-11-18T13:33:49;1.60;;;1.20;;
67372;SDS011;54257;54.496;18.412;2022-11-18T13:36:19;2.30;;;1.30;;
67372;SDS011;54257;54.496;18.412;2022-11-18T13:38:55;1.40;;;1.30;;
67372;SDS011;54257;54.496;18.412;2022-11-18T13:41:25;2.60;;;1.60;;
67372;SDS011;54257;54.496;18.412;2022-11-18T13:44:10;2.50;;;2.20;;
67372;SDS011;54257;54.496;18.412;2022-11-18T13:46:46;2.00;;;1.70;;
67372;SDS011;54257;54.496;18.412;2022-11-18T13:49:28;2.70;;;1.60;;
67372;SDS011;54257;54.496;18.412;2022-11-18T13:52:07;2.30;;;1.70;;
67372;SDS011;54257;54.496;18.412;2022-11-18T13:54:39;2.40;;;2.00;;
67372;SDS011;54257;54.496;18.412;2022-11-18T13:57:17;2.60;;;1.90;;
67372;SDS011;54257;54.496;18.412;2022-11-18T13:59:57;2.60;;;2.00;;
67372;SDS011;54257;54.496;18.412;2022-11-18T14:02:38;3.90;;;1.60;;
67372;SDS011;54257;54.496;18.412;2022-11-18T14:05:18;2.00;;;1.80;;
67372;SDS011;54257;54.496;18.412;2022-11-18T14:07:58;2.30;;;1.30;;
67372;SDS011;54257;54.496;18.412;2022-11-18T14:10:41;2.20;;;1.10;;
67372;SDS011;54257;54.496;18.412;2022-11-18T14:13:27;1.60;;;1.40;;
67372;SDS011;54257;54.496;18.412;2022-11-18T14:15:57;1.60;;;1.50;;
67372;SDS011;54257;54.496;18.412;2022-11-18T14:18:30;1.80;;;1.50;;
67372;SDS011;54257;54.496;18.412;2022-11-18T14:21:00;2.80;;;1.40;;
67372;SDS011;54257;54.496;18.412;2022-11-18T14:23:33;1.40;;;1.30;;
67372;SDS011;54257;54.496;18.412;2022-11-18T14:26:03;2.10;;;1.40;;
67372;SDS011;54257;54.496;18.412;2022-11-18T14:28:33;1.90;;;1.60;;
67372;SDS011;54257;54.496;18.412;2022-11-18T14:31:20;2.60;;;2.20;;
67372;SDS011;54257;54.496;18.412;2022-11-18T14:36:41;2.10;;;1.20;;
67372;SDS011;54257;54.496;18.412;2022-11-18T14:39:18;2.00;;;1.00;;
67372;SDS011;54257;54.496;18.412;2022-11-18T14:41:48;1.50;;;1.40;;
67372;SDS011;54257;54.496;18.412;2022-11-18T14:44:16;1.10;;;0.90;;
67372;SDS011;54257;54.496;18.412;2022-11-18T14:46:46;1.10;;;0.90;;
67372;SDS011;54257;54.496;18.412;2022-11-18T14:49:16;1.90;;;1.30;;
67372;SDS011;54257;54.496;18.412;2022-11-18T14:51:49;1.60;;;1.40;;
67372;SDS011;54257;54.496;18.412;2022-11-18T14:54:17;1.90;;;1.60;;
67372;SDS011;54257;54.496;18.412;2022-11-18T14:56:46;1.60;;;1.20;;
67372;SDS011;54257;54.496;18.412;2022-11-18T14:59:16;1.20;;;1.10;;
67372;SDS011;54257;54.496;18.412;2022-11-18T15:01:45;1.70;;;1.40;;
67372;SDS011;54257;54.496;18.412;2022-11-18T15:04:13;2.50;;;1.40;;
67372;SDS011;54257;54.496;18.412;2022-11-18T15:06:42;2.50;;;1.70;;
67372;SDS011;54257;54.496;18.412;2022-11-18T15:09:10;2.70;;;1.60;;
67372;SDS011;54257;54.496;18.412;2022-11-18T15:11:38;4.20;;;2.00;;
67372;SDS011;54257;54.496;18.412;2022-11-18T15:14:05;3.60;;;2.00;;
67372;SDS011;54257;54.496;18.412;2022-11-18T15:16:33;2.00;;;1.50;;
67372;SDS011;54257;54.496;18.412;2022-11-18T15:19:01;2.50;;;1.90;;
67372;SDS011;54257;54.496;18.412;2022-11-18T15:21:30;3.50;;;2.20;;
67372;SDS011;54257;54.496;18.412;2022-11-18T15:23:59;1.80;;;1.60;;
67372;SDS011;54257;54.496;18.412;2022-11-18T15:26:27;2.30;;;1.90;;
67372;SDS011;54257;54.496;18.412;2022-11-18T15:28:59;2.80;;;2.40;;
67372;SDS011;54257;54.496;18.412;2022-11-18T15:31:27;0.80;;;0.80;;
67372;SDS011;54257;54.496;18.412;2022-11-18T15:33:54;2.20;;;1.60;;
67372;SDS011;54257;54.496;18.412;2022-11-18T15:36:23;1.30;;;1.20;;
67372;SDS011;54257;54.496;18.412;2022-11-18T15:38:53;1.70;;;1.30;;
67372;SDS011;54257;54.496;18.412;2022-11-18T15:41:21;4.00;;;2.80;;
67372;SDS011;54257;54.496;18.412;2022-11-18T15:43:51;3.30;;;1.80;;
67372;SDS011;54257;54.496;18.412;2022-11-18T15:46:20;2.90;;;2.10;;
67372;SDS011;54257;54.496;18.412;2022-11-18T15:48:50;2.90;;;2.00;;
67372;SDS011;54257;54.496;18.412;2022-11-18T15:51:18;2.10;;;1.30;;
67372;SDS011;54257;54.496;18.412;2022-11-18T15:53:47;2.50;;;1.40;;
67372;SDS011;54257;54.496;18.412;2022-11-18T15:56:15;2.40;;;1.40;;
67372;SDS011;54257;54.496;18.412;2022-11-18T15:58:59;1.40;;;1.20;;
67372;SDS011;54257;54.496;18.412;2022-11-18T16:01:33;3.20;;;1.20;;
67372;SDS011;54257;54.496;18.412;2022-11-18T16:04:02;2.40;;;1.60;;
67372;SDS011;54257;54.496;18.412;2022-11-18T16:06:31;2.40;;;1.90;;
67372;SDS011;54257;54.496;18.412;2022-11-18T16:08:59;2.90;;;1.70;;
67372;SDS011;54257;54.496;18.412;2022-11-18T16:11:27;3.50;;;1.40;;
67372;SDS011;54257;54.496;18.412;2022-11-18T16:14:14;3.90;;;3.00;;
67372;SDS011;54257;54.496;18.412;2022-11-18T16:16:43;3.60;;;2.10;;
67372;SDS011;54257;54.496;18.412;2022-11-18T16:19:19;9.00;;;5.80;;
67372;SDS011;54257;54.496;18.412;2022-11-18T16:21:49;4.40;;;3.30;;
67372;SDS011;54257;54.496;18.412;2022-11-18T16:24:22;8.30;;;7.30;;
67372;SDS011;54257;54.496;18.412;2022-11-18T16:26:54;7.00;;;5.10;;
67372;SDS011;54257;54.496;18.412;2022-11-18T16:29:22;10.90;;;6.90;;
67372;SDS011;54257;54.496;18.412;2022-11-18T16:31:49;12.10;;;10.90;;
67372;SDS011;54257;54.496;18.412;2022-11-18T16:34:22;15.40;;;11.90;;
67372;SDS011;54257;54.496;18.412;2022-11-18T16:36:55;12.00;;;8.90;;
67372;SDS011;54257;54.496;18.412;2022-11-18T16:39:26;9.00;;;6.80;;
67372;SDS011;54257;54.496;18.412;2022-11-18T16:41:54;7.10;;;5.10;;
67372;SDS011;54257;54.496;18.412;2022-11-18T16:44:26;3.90;;;3.00;;
67372;SDS011;54257;54.496;18.412;2022-11-18T16:46:54;13.00;;;8.30;;
67372;SDS011;54257;54.496;18.412;2022-11-18T16:49:25;10.70;;;7.80;;
67372;SDS011;54257;54.496;18.412;2022-11-18T16:51:54;10.90;;;6.80;;
67372;SDS011;54257;54.496;18.412;2022-11-18T16:54:23;11.40;;;7.70;;
67372;SDS011;54257;54.496;18.412;2022-11-18T16:56:53;10.30;;;6.60;;
67372;SDS011;54257;54.496;18.412;2022-11-18T16:59:22;6.30;;;3.90;;
67372;SDS011;54257;54.496;18.412;2022-11-18T17:01:52;11.60;;;6.10;;
67372;SDS011;54257;54.496;18.412;2022-11-18T17:04:21;34.50;;;15.90;;
67372;SDS011;54257;54.496;18.412;2022-11-18T17:06:52;17.90;;;8.10;;
67372;SDS011;54257;54.496;18.412;2022-11-18T17:09:20;6.40;;;3.30;;
67372;SDS011;54257;54.496;18.412;2022-11-18T17:11:49;4.30;;;2.80;;
67372;SDS011;54257;54.496;18.412;2022-11-18T17:14:17;5.10;;;4.60;;
67372;SDS011;54257;54.496;18.412;2022-11-18T17:16:45;14.90;;;7.70;;
67372;SDS011;54257;54.496;18.412;2022-11-18T17:19:13;5.70;;;3.00;;
67372;SDS011;54257;54.496;18.412;2022-11-18T17:21:45;7.90;;;4.90;;
67372;SDS011;54257;54.496;18.412;2022-11-18T17:24:13;21.80;;;12.50;;
67372;SDS011;54257;54.496;18.412;2022-11-18T17:26:42;9.80;;;7.70;;
67372;SDS011;54257;54.496;18.412;2022-11-18T17:29:11;6.40;;;3.50;;
67372;SDS011;54257;54.496;18.412;2022-11-18T17:31:39;4.50;;;3.40;;
67372;SDS011;54257;54.496;18.412;2022-11-18T17:34:10;10.00;;;5.70;;
67372;SDS011;54257;54.496;18.412;2022-11-18T17:36:39;9.70;;;5.30;;
67372;SDS011;54257;54.496;18.412;2022-11-18T17:39:07;4.70;;;3.30;;
67372;SDS011;54257;54.496;18.412;2022-11-18T17:41:36;6.70;;;3.90;;
67372;SDS011;54257;54.496;18.412;2022-11-18T17:44:23;8.90;;;5.20;;
67372;SDS011;54257;54.496;18.412;2022-11-18T17:46:51;9.10;;;6.00;;
67372;SDS011;54257;54.496;18.412;2022-11-18T17:49:18;4.30;;;3.30;;
67372;SDS011;54257;54.496;18.412;2022-11-18T17:51:48;3.90;;;3.00;;
67372;SDS011;54257;54.496;18.412;2022-11-18T17:54:19;5.20;;;3.40;;
67372;SDS011;54257;54.496;18.412;2022-11-18T17:56:47;3.10;;;2.60;;
67372;SDS011;54257;54.496;18.412;2022-11-18T17:59:17;5.80;;;3.40;;
67372;SDS011;54257;54.496;18.412;2022-11-18T18:01:45;7.30;;;4.50;;
67372;SDS011;54257;54.496;18.412;2022-11-18T18:04:12;8.40;;;5.20;;
67372;SDS011;54257;54.496;18.412;2022-11-18T18:06:40;6.90;;;4.20;;
67372;SDS011;54257;54.496;18.412;2022-11-18T18:09:08;8.10;;;4.50;;
67372;SDS011;54257;54.496;18.412;2022-11-18T18:11:35;6.80;;;4.40;;
67372;SDS011;54257;54.496;18.412;2022-11-18T18:14:03;7.10;;;5.20;;
67372;SDS011;54257;54.496;18.412;2022-11-18T18:16:44;7.30;;;3.40;;
67372;SDS011;54257;54.496;18.412;2022-11-18T18:19:13;8.80;;;5.30;;
67372;SDS011;54257;54.496;18.412;2022-11-18T18:21:43;7.30;;;5.50;;
67372;SDS011;54257;54.496;18.412;2022-11-18T18:24:11;8.50;;;4.50;;
67372;SDS011;54257;54.496;18.412;2022-11-18T18:26:40;6.80;;;4.50;;
67372;SDS011;54257;54.496;18.412;2022-11-18T18:29:07;7.60;;;4.30;;
67372;SDS011;54257;54.496;18.412;2022-11-18T18:31:35;13.10;;;5.90;;
67372;SDS011;54257;54.496;18.412;2022-11-18T18:34:03;10.80;;;6.40;;
67372;SDS011;54257;54.496;18.412;2022-11-18T18:36:31;12.90;;;7.70;;
67372;SDS011;54257;54.496;18.412;2022-11-18T18:38:58;12.80;;;8.00;;
67372;SDS011;54257;54.496;18.412;2022-11-18T18:41:26;13.20;;;8.10;;
67372;SDS011;54257;54.496;18.412;2022-11-18T18:43:53;12.80;;;8.10;;
67372;SDS011;54257;54.496;18.412;2022-11-18T18:46:21;17.60;;;7.90;;
67372;SDS011;54257;54.496;18.412;2022-11-18T18:49:10;13.00;;;6.60;;
67372;SDS011;54257;54.496;18.412;2022-11-18T18:54:10;10.80;;;7.20;;
67372;SDS011;54257;54.496;18.412;2022-11-18T18:56:38;22.50;;;13.60;;
67372;SDS011;54257;54.496;18.412;2022-11-18T18:59:06;59.20;;;30.10;;
67372;SDS011;54257;54.496;18.412;2022-11-18T19:01:34;28.20;;;14.30;;
67372;SDS011;54257;54.496;18.412;2022-11-18T19:04:02;16.00;;;10.00;;
67372;SDS011;54257;54.496;18.412;2022-11-18T19:06:35;15.50;;;10.70;;
67372;SDS011;54257;54.496;18.412;2022-11-18T19:09:04;29.10;;;13.90;;
67372;SDS011;54257;54.496;18.412;2022-11-18T19:11:34;52.70;;;25.50;;
67372;SDS011;54257;54.496;18.412;2022-11-18T19:14:21;11.60;;;7.50;;
67372;SDS011;54257;54.496;18.412;2022-11-18T19:16:49;25.90;;;13.00;;
67372;SDS011;54257;54.496;18.412;2022-11-18T19:19:18;29.70;;;15.70;;
67372;SDS011;54257;54.496;18.412;2022-11-18T19:22:06;10.80;;;7.00;;
67372;SDS011;54257;54.496;18.412;2022-11-18T19:24:34;11.70;;;6.70;;
67372;SDS011;54257;54.496;18.412;2022-11-18T19:27:02;4.10;;;3.10;;
67372;SDS011;54257;54.496;18.412;2022-11-18T19:29:32;2.40;;;2.20;;
67372;SDS011;54257;54.496;18.412;2022-11-18T19:31:58;2.20;;;1.90;;
67372;SDS011;54257;54.496;18.412;2022-11-18T19:34:26;2.50;;;2.20;;
67372;SDS011;54257;54.496;18.412;2022-11-18T19:36:53;4.30;;;3.40;;
67372;SDS011;54257;54.496;18.412;2022-11-18T19:39:20;6.60;;;4.40;;
67372;SDS011;54257;54.496;18.412;2022-11-18T19:41:47;3.50;;;3.00;;
67372;SDS011;54257;54.496;18.412;2022-11-18T19:44:14;4.10;;;2.60;;
67372;SDS011;54257;54.496;18.412;2022-11-18T19:46:41;4.30;;;2.00;;
67372;SDS011;54257;54.496;18.412;2022-11-18T19:49:08;4.20;;;2.70;;
67372;SDS011;54257;54.496;18.412;2022-11-18T19:51:35;3.90;;;2.70;;
67372;SDS011;54257;54.496;18.412;2022-11-18T19:54:03;4.80;;;3.00;;
67372;SDS011;54257;54.496;18.412;2022-11-18T19:56:30;4.60;;;2.60;;
67372;SDS011;54257;54.496;18.412;2022-11-18T19:58:57;4.30;;;2.60;;
67372;SDS011;54257;54.496;18.412;2022-11-18T20:01:25;3.20;;;2.80;;
67372;SDS011;54257;54.496;18.412;2022-11-18T20:03:55;4.90;;;3.40;;
67372;SDS011;54257;54.496;18.412;2022-11-18T20:06:25;3.40;;;2.50;;
67372;SDS011;54257;54.496;18.412;2022-11-18T20:08:53;2.90;;;2.40;;
67372;SDS011;54257;54.496;18.412;2022-11-18T20:11:21;3.90;;;2.80;;
67372;SDS011;54257;54.496;18.412;2022-11-18T20:13:51;5.10;;;3.70;;
67372;SDS011;54257;54.496;18.412;2022-11-18T20:16:19;4.90;;;3.80;;
67372;SDS011;54257;54.496;18.412;2022-11-18T20:18:52;6.10;;;3.60;;
67372;SDS011;54257;54.496;18.412;2022-11-18T20:21:21;6.40;;;4.40;;
67372;SDS011;54257;54.496;18.412;2022-11-18T20:23:50;9.30;;;4.50;;
67372;SDS011;54257;54.496;18.412;2022-11-18T20:26:25;7.40;;;5.30;;
67372;SDS011;54257;54.496;18.412;2022-11-18T20:28:59;6.50;;;3.80;;
67372;SDS011;54257;54.496;18.412;2022-11-18T20:31:27;4.40;;;3.40;;
67372;SDS011;54257;54.496;18.412;2022-11-18T20:33:55;6.30;;;4.70;;
67372;SDS011;54257;54.496;18.412;2022-11-18T20:36:23;6.40;;;4.00;;
67372;SDS011;54257;54.496;18.412;2022-11-18T20:39:04;5.10;;;4.40;;
67372;SDS011;54257;54.496;18.412;2022-11-18T20:41:33;8.10;;;4.60;;
67372;SDS011;54257;54.496;18.412;2022-11-18T20:44:02;8.10;;;5.60;;
67372;SDS011;54257;54.496;18.412;2022-11-18T20:46:37;9.20;;;5.80;;
67372;SDS011;54257;54.496;18.412;2022-11-18T20:49:04;8.90;;;6.40;;
67372;SDS011;54257;54.496;18.412;2022-11-18T20:51:32;11.20;;;6.70;;
67372;SDS011;54257;54.496;18.412;2022-11-18T20:54:00;27.10;;;13.00;;
67372;SDS011;54257;54.496;18.412;2022-11-18T20:56:36;25.40;;;12.50;;
67372;SDS011;54257;54.496;18.412;2022-11-18T20:59:05;41.20;;;17.70;;
67372;SDS011;54257;54.496;18.412;2022-11-18T21:01:32;33.40;;;15.90;;
67372;SDS011;54257;54.496;18.412;2022-11-18T21:04:01;15.50;;;8.70;;
67372;SDS011;54257;54.496;18.412;2022-11-18T21:06:30;29.00;;;13.60;;
67372;SDS011;54257;54.496;18.412;2022-11-18T21:09:00;34.20;;;14.80;;
67372;SDS011;54257;54.496;18.412;2022-11-18T21:11:32;14.30;;;8.40;;
67372;SDS011;54257;54.496;18.412;2022-11-18T21:14:01;10.60;;;6.40;;
67372;SDS011;54257;54.496;18.412;2022-11-18T21:16:46;12.30;;;6.30;;
67372;SDS011;54257;54.496;18.412;2022-11-18T21:19:14;9.40;;;6.00;;
67372;SDS011;54257;54.496;18.412;2022-11-18T21:21:42;13.20;;;7.80;;
67372;SDS011;54257;54.496;18.412;2022-11-18T21:24:27;16.70;;;9.80;;
67372;SDS011;54257;54.496;18.412;2022-11-18T21:26:57;14.50;;;8.70;;
67372;SDS011;54257;54.496;18.412;2022-11-18T21:29:31;16.70;;;8.60;;
67372;SDS011;54257;54.496;18.412;2022-11-18T21:32:13;16.00;;;8.00;;
67372;SDS011;54257;54.496;18.412;2022-11-18T21:34:47;9.80;;;6.80;;
67372;SDS011;54257;54.496;18.412;2022-11-18T21:37:16;14.70;;;7.60;;
67372;SDS011;54257;54.496;18.412;2022-11-18T21:39:47;15.60;;;9.50;;
67372;SDS011;54257;54.496;18.412;2022-11-18T21:42:17;12.60;;;7.70;;